createdAt,value
2018-06-25T00:00:17.463Z,645.60
2018-06-25T00:01:17.484Z,633.80
2018-06-25T00:02:17.531Z,644.30
2018-06-25T00:03:17.567Z,647.70
2018-06-25T00:04:17.639Z,622.90
2018-06-25T00:05:17.695Z,635.40
2018-06-25T00:06:17.730Z,633.40
2018-06-25T00:07:17.767Z,664.50
2018-06-25T00:08:17.829Z,669.70
2018-06-25T00:09:17.852Z,615.20
2018-06-25T00:10:17.908Z,611.50
2018-06-25T00:11:17.952Z,614.00
2018-06-25T00:12:17.999Z,619.60
2018-06-25T00:13:18.018Z,639.60
2018-06-25T00:14:18.088Z,659.40
2018-06-25T00:15:18.091Z,654.90
2018-06-25T00:16:18.150Z,650.30
2018-06-25T00:17:18.196Z,654.00
2018-06-25T00:18:18.251Z,614.40
2018-06-25T00:19:18.301Z,604.50
2018-06-25T00:20:18.331Z,586.20
2018-06-25T00:21:18.371Z,621.90
2018-06-25T00:22:18.439Z,599.90
2018-06-25T00:23:18.473Z,627.50
2018-06-25T00:24:18.522Z,634.20
2018-06-25T00:25:18.589Z,649.20
2018-06-25T00:26:18.612Z,656.30
2018-06-25T00:27:18.643Z,622.40
2018-06-25T00:28:18.692Z,590.30
2018-06-25T00:29:18.740Z,665.40
2018-06-25T00:30:18.770Z,650.90
2018-06-25T00:31:18.837Z,646.20
2018-06-25T00:32:18.889Z,625.30
2018-06-25T00:33:18.897Z,663.10
2018-06-25T00:34:18.970Z,672.10
2018-06-25T00:35:18.991Z,672.00
2018-06-25T00:36:19.030Z,641.20
2018-06-25T00:37:19.068Z,648.10
2018-06-25T00:38:19.156Z,639.20
2018-06-25T00:39:19.188Z,634.60
2018-06-25T00:40:19.228Z,692.30
2018-06-25T00:41:19.262Z,664.20
2018-06-25T00:42:19.327Z,629.00
2018-06-25T00:43:19.347Z,616.00
2018-06-25T00:44:19.404Z,697.00
2018-06-25T00:45:19.444Z,696.90
2018-06-25T00:46:19.503Z,669.20
2018-06-25T00:47:19.500Z,675.70
2018-06-25T00:48:19.560Z,662.00
2018-06-25T00:49:19.622Z,678.60
2018-06-25T00:50:19.676Z,676.60
2018-06-25T00:51:19.696Z,613.90
2018-06-25T00:52:19.764Z,644.10
2018-06-25T00:53:19.812Z,656.70
2018-06-25T00:54:19.833Z,646.70
2018-06-25T00:55:19.863Z,668.40
2018-06-25T00:56:19.934Z,644.60
2018-06-25T00:57:20.016Z,678.60
2018-06-25T00:58:19.984Z,665.90
2018-06-25T00:59:20.060Z,683.30
2018-06-25T01:00:20.116Z,662.00
2018-06-25T01:01:20.143Z,628.00
2018-06-25T01:02:20.261Z,643.50
2018-06-25T01:03:20.218Z,681.90
2018-06-25T01:04:20.293Z,656.90
2018-06-25T01:05:20.356Z,629.10
2018-06-25T01:06:20.365Z,618.20
2018-06-25T01:07:20.418Z,664.50
2018-06-25T01:08:20.480Z,698.20
2018-06-25T01:09:20.467Z,657.10
2018-06-25T01:10:20.551Z,650.40
2018-06-25T01:11:20.608Z,666.60
2018-06-25T01:12:20.612Z,654.30
2018-06-25T01:13:20.680Z,706.40
2018-06-25T01:14:20.709Z,678.60
2018-06-25T01:15:20.744Z,685.60
2018-06-25T01:16:20.797Z,610.20
2018-06-25T01:17:20.847Z,601.30
2018-06-25T01:18:20.910Z,654.90
2018-06-25T01:19:20.935Z,675.10
2018-06-25T01:20:20.958Z,666.20
2018-06-25T01:21:21.027Z,637.60
2018-06-25T01:22:21.059Z,658.40
2018-06-25T01:23:21.123Z,648.20
2018-06-25T01:24:21.184Z,652.90
2018-06-25T01:25:21.218Z,644.10
2018-06-25T01:26:21.254Z,655.90
2018-06-25T01:27:21.290Z,707.90
2018-06-25T01:28:21.358Z,707.90
2018-06-25T01:29:21.372Z,659.50
2018-06-25T01:30:21.409Z,624.80
2018-06-25T01:31:21.453Z,624.70
2018-06-25T01:32:21.534Z,705.10
2018-06-25T01:33:21.559Z,645.20
2018-06-25T01:34:21.585Z,693.10
2018-06-25T01:35:21.661Z,695.90
2018-06-25T01:36:21.703Z,721.40
2018-06-25T01:37:21.716Z,634.40
2018-06-25T01:38:21.793Z,635.80
2018-06-25T01:39:21.807Z,645.90
2018-06-25T01:40:21.860Z,674.00
2018-06-25T01:41:21.910Z,707.80
2018-06-25T01:42:21.949Z,686.70
2018-06-25T01:43:21.977Z,686.90
2018-06-25T01:44:22.043Z,691.20
2018-06-25T01:45:22.128Z,656.50
2018-06-25T01:46:22.134Z,625.70
2018-06-25T01:47:22.157Z,646.30
2018-06-25T01:48:22.207Z,664.60
2018-06-25T01:49:22.301Z,660.00
2018-06-25T01:50:22.333Z,673.90
2018-06-25T01:51:22.361Z,603.30
2018-06-25T01:52:22.412Z,578.60
2018-06-25T01:53:22.479Z,602.50
2018-06-25T01:54:22.498Z,561.00
2018-06-25T01:55:22.526Z,589.80
2018-06-25T01:56:22.573Z,608.00
2018-06-25T01:57:22.649Z,657.40
2018-06-25T01:58:22.673Z,642.60
2018-06-25T01:59:22.774Z,608.00
2018-06-25T02:00:22.747Z,621.50
2018-06-25T02:01:22.835Z,620.00
2018-06-25T02:02:22.856Z,634.10
2018-06-25T02:03:23.081Z,634.40
2018-06-25T02:04:22.905Z,586.00
2018-06-25T02:05:22.990Z,572.90
2018-06-25T02:06:23.020Z,544.90
2018-06-25T02:07:23.046Z,602.10
2018-06-25T02:08:23.099Z,663.40
2018-06-25T02:09:23.180Z,584.50
2018-06-25T02:10:23.194Z,628.10
2018-06-25T02:11:23.254Z,629.40
2018-06-25T02:12:23.275Z,615.90
2018-06-25T02:13:23.339Z,647.70
2018-06-25T02:14:23.380Z,658.30
2018-06-25T02:15:23.422Z,673.90
2018-06-25T02:16:23.472Z,680.70
2018-06-25T02:17:23.507Z,591.70
2018-06-25T02:18:23.558Z,650.90
2018-06-25T02:19:23.556Z,631.70
2018-06-25T02:20:23.629Z,645.80
2018-06-25T02:21:23.666Z,604.10
2018-06-25T02:22:23.719Z,615.70
2018-06-25T02:23:23.762Z,593.50
2018-06-25T02:24:23.798Z,673.60
2018-06-25T02:25:24.106Z,657.70
2018-06-25T02:26:23.910Z,651.10
2018-06-25T02:27:23.954Z,652.60
2018-06-25T02:28:23.982Z,690.00
2018-06-25T02:29:24.037Z,662.60
2018-06-25T02:30:24.078Z,692.70
2018-06-25T02:31:24.105Z,720.00
2018-06-25T02:32:24.151Z,687.30
2018-06-25T02:33:24.193Z,666.80
2018-06-25T02:34:24.258Z,694.90
2018-06-25T02:35:24.280Z,739.00
2018-06-25T02:36:24.314Z,684.80
2018-06-25T02:37:24.370Z,653.60
2018-06-25T02:38:24.438Z,668.10
2018-06-25T02:39:24.472Z,728.10
2018-06-25T02:40:24.516Z,693.50
2018-06-25T02:41:24.544Z,703.50
2018-06-25T02:42:24.586Z,755.40
2018-06-25T02:43:24.671Z,730.80
2018-06-25T02:44:24.711Z,717.30
2018-06-25T02:45:24.727Z,735.90
2018-06-25T02:46:24.778Z,734.80
2018-06-25T02:47:24.850Z,707.20
2018-06-25T02:48:24.854Z,733.90
2018-06-25T02:49:24.934Z,759.30
2018-06-25T02:50:24.954Z,723.30
2018-06-25T02:51:25.016Z,743.60
2018-06-25T02:52:25.033Z,733.80
2018-06-25T02:53:25.119Z,727.30
2018-06-25T02:54:25.141Z,689.60
2018-06-25T02:55:25.183Z,689.60
2018-06-25T02:56:25.231Z,688.20
2018-06-25T02:57:25.273Z,670.20
2018-06-25T02:58:25.313Z,647.90
2018-06-25T02:59:25.359Z,680.00
2018-06-25T03:00:25.392Z,698.90
2018-06-25T03:01:25.452Z,696.70
2018-06-25T03:02:25.502Z,637.10
2018-06-25T03:03:25.540Z,673.00
2018-06-25T03:04:25.538Z,681.20
2018-06-25T03:05:25.634Z,674.40
2018-06-25T03:06:25.636Z,685.60
2018-06-25T03:07:25.661Z,696.00
2018-06-25T03:08:25.720Z,710.90
2018-06-25T03:09:25.793Z,736.60
2018-06-25T03:10:25.820Z,731.50
2018-06-25T03:11:25.884Z,711.20
2018-06-25T03:12:25.920Z,728.70
2018-06-25T03:13:25.967Z,721.70
2018-06-25T03:14:26.013Z,709.70
2018-06-25T03:15:26.053Z,746.30
2018-06-25T03:16:26.093Z,727.20
2018-06-25T03:17:26.111Z,755.70
2018-06-25T03:18:26.185Z,725.80
2018-06-25T03:19:26.223Z,732.80
2018-06-25T03:20:26.259Z,748.50
2018-06-25T03:21:26.309Z,746.20
2018-06-25T03:22:26.358Z,746.60
2018-06-25T03:23:26.376Z,749.80
2018-06-25T03:24:26.418Z,726.50
2018-06-25T03:25:26.501Z,733.70
2018-06-25T03:26:26.540Z,743.50
2018-06-25T03:27:26.545Z,739.50
2018-06-25T03:28:26.855Z,747.40
2018-06-25T03:29:26.653Z,737.00
2018-06-25T03:30:26.692Z,709.80
2018-06-25T03:31:26.735Z,732.50
2018-06-25T03:32:26.781Z,746.40
2018-06-25T03:33:26.818Z,754.70
2018-06-25T03:34:26.852Z,743.10
2018-06-25T03:35:26.904Z,748.10
2018-06-25T03:36:26.971Z,738.90
2018-06-25T03:37:26.989Z,731.20
2018-06-25T03:38:27.023Z,692.10
2018-06-25T03:39:27.376Z,697.20
2018-06-25T03:40:27.136Z,683.70
2018-06-25T03:41:27.182Z,705.70
2018-06-25T03:42:27.231Z,766.40
2018-06-25T03:43:27.266Z,752.20
2018-06-25T03:44:27.283Z,753.80
2018-06-25T03:45:27.367Z,780.00
2018-06-25T03:46:27.381Z,774.00
2018-06-25T03:47:27.440Z,750.30
2018-06-25T03:48:27.458Z,730.60
2018-06-25T03:49:27.520Z,721.50
2018-06-25T03:50:27.758Z,750.20
2018-06-25T03:51:27.600Z,747.80
2018-06-25T03:52:27.637Z,788.30
2018-06-25T03:53:27.671Z,775.10
2018-06-25T03:54:27.754Z,774.80
2018-06-25T03:55:27.759Z,753.90
2018-06-25T03:56:27.844Z,806.00
2018-06-25T03:57:27.873Z,785.30
2018-06-25T03:58:27.919Z,801.30
2018-06-25T03:59:27.936Z,764.70
2018-06-25T04:00:27.992Z,805.80
2018-06-25T04:01:28.020Z,767.40
2018-06-25T04:02:28.080Z,848.80
2018-06-25T04:03:28.140Z,775.70
2018-06-25T04:04:28.171Z,787.30
2018-06-25T04:05:28.237Z,807.50
2018-06-25T04:06:28.250Z,783.40
2018-06-25T04:07:28.321Z,803.10
2018-06-25T04:08:28.332Z,781.80
2018-06-25T04:09:28.398Z,790.90
2018-06-25T04:10:28.430Z,792.50
2018-06-25T04:11:28.482Z,748.20
2018-06-25T04:12:28.535Z,791.70
2018-06-25T04:13:28.563Z,778.60
2018-06-25T04:14:28.620Z,778.30
2018-06-25T04:15:28.630Z,792.10
2018-06-25T04:16:28.700Z,793.90
2018-06-25T04:17:28.747Z,790.60
2018-06-25T04:18:28.789Z,765.60
2018-06-25T04:19:28.813Z,759.90
2018-06-25T04:20:28.867Z,778.20
2018-06-25T04:21:28.912Z,791.60
2018-06-25T04:22:28.972Z,779.50
2018-06-25T04:23:28.997Z,780.60
2018-06-25T04:24:29.051Z,778.50
2018-06-25T04:25:29.069Z,776.20
2018-06-25T04:26:29.122Z,790.10
2018-06-25T04:27:29.153Z,801.60
2018-06-25T04:28:29.211Z,758.60
2018-06-25T04:29:29.280Z,793.50
2018-06-25T04:30:29.283Z,814.70
2018-06-25T04:31:29.340Z,796.70
2018-06-25T04:32:29.378Z,814.00
2018-06-25T04:33:29.709Z,810.30
2018-06-25T04:34:29.505Z,792.80
2018-06-25T04:35:29.521Z,812.80
2018-06-25T04:36:29.549Z,800.90
2018-06-25T04:37:29.609Z,780.00
2018-06-25T04:38:29.626Z,794.90
2018-06-25T04:39:29.686Z,783.90
2018-06-25T04:40:29.763Z,811.80
2018-06-25T04:41:29.789Z,785.50
2018-06-25T04:42:29.836Z,782.40
2018-06-25T04:43:29.878Z,770.10
2018-06-25T04:44:30.097Z,783.20
2018-06-25T04:45:29.960Z,792.90
2018-06-25T04:46:30.005Z,804.30
2018-06-25T04:47:30.047Z,809.20
2018-06-25T04:48:30.098Z,777.40
2018-06-25T04:49:30.118Z,768.70
2018-06-25T04:50:30.187Z,753.10
2018-06-25T04:51:30.219Z,766.80
2018-06-25T04:52:30.282Z,784.20
2018-06-25T04:53:30.331Z,811.40
2018-06-25T04:54:30.370Z,790.70
2018-06-25T04:55:30.643Z,810.80
2018-06-25T04:56:30.430Z,805.80
2018-06-25T04:57:30.492Z,803.90
2018-06-25T04:58:30.543Z,801.30
2018-06-25T04:59:30.559Z,816.80
2018-06-25T05:00:30.617Z,805.70
2018-06-25T05:01:30.661Z,791.10
2018-06-25T05:02:30.691Z,795.20
2018-06-25T05:03:30.758Z,796.90
2018-06-25T05:04:30.756Z,779.00
2018-06-25T05:05:30.849Z,788.50
2018-06-25T05:06:30.858Z,786.40
2018-06-25T05:07:30.919Z,797.40
2018-06-25T05:08:30.981Z,816.40
2018-06-25T05:09:30.999Z,792.40
2018-06-25T05:10:31.048Z,780.70
2018-06-25T05:11:31.074Z,784.10
2018-06-25T05:12:31.145Z,773.10
2018-06-25T05:13:31.399Z,774.30
2018-06-25T05:14:31.211Z,768.70
2018-06-25T05:15:31.274Z,772.00
2018-06-25T05:16:31.285Z,785.10
2018-06-25T05:17:31.375Z,777.80
2018-06-25T05:18:31.406Z,780.10
2018-06-25T05:19:31.434Z,775.90
2018-06-25T05:20:31.465Z,772.50
2018-06-25T05:21:31.524Z,759.00
2018-06-25T05:22:31.589Z,771.30
2018-06-25T05:23:31.671Z,750.00
2018-06-25T05:24:31.888Z,754.80
2018-06-25T05:25:31.691Z,770.00
2018-06-25T05:26:31.749Z,753.60
2018-06-25T05:27:31.767Z,729.70
2018-06-25T05:28:31.829Z,758.30
2018-06-25T05:29:31.863Z,749.00
2018-06-25T05:30:31.931Z,734.50
2018-06-25T05:31:31.990Z,759.50
2018-06-25T05:32:32.025Z,740.20
2018-06-25T05:33:32.055Z,763.90
2018-06-25T05:34:32.105Z,749.80
2018-06-25T05:35:32.142Z,737.60
2018-06-25T05:36:32.404Z,742.00
2018-06-25T05:37:32.215Z,756.70
2018-06-25T05:38:32.266Z,742.00
2018-06-25T05:39:32.338Z,754.90
2018-06-25T05:40:32.371Z,755.10
2018-06-25T05:41:32.426Z,742.60
2018-06-25T05:42:32.462Z,764.90
2018-06-25T05:43:32.521Z,756.60
2018-06-25T05:44:32.558Z,764.40
2018-06-25T05:45:32.562Z,749.90
2018-06-25T05:46:32.598Z,731.60
2018-06-25T05:47:32.933Z,749.80
2018-06-25T05:48:32.711Z,738.50
2018-06-25T05:49:32.752Z,738.40
2018-06-25T05:50:32.822Z,731.70
2018-06-25T05:51:32.839Z,724.30
2018-06-25T05:52:32.867Z,744.60
2018-06-25T05:53:32.920Z,729.60
2018-06-25T05:54:32.967Z,725.50
2018-06-25T05:55:32.988Z,753.60
2018-06-25T05:56:33.051Z,738.00
2018-06-25T05:57:33.100Z,776.30
2018-06-25T05:58:33.137Z,749.00
2018-06-25T05:59:33.183Z,752.30
2018-06-25T06:00:33.221Z,775.40
2018-06-25T06:01:33.266Z,758.50
2018-06-25T06:02:33.522Z,750.90
2018-06-25T06:03:33.370Z,745.10
2018-06-25T06:04:33.397Z,752.30
2018-06-25T06:05:33.454Z,764.10
2018-06-25T06:06:33.493Z,762.10
2018-06-25T06:07:33.532Z,749.90
2018-06-25T06:08:33.569Z,755.30
2018-06-25T06:09:33.627Z,748.00
2018-06-25T06:10:33.666Z,751.50
2018-06-25T06:11:33.691Z,768.70
2018-06-25T06:12:33.772Z,774.00
2018-06-25T06:13:33.782Z,777.50
2018-06-25T06:14:34.040Z,771.20
2018-06-25T06:15:33.903Z,754.70
2018-06-25T06:16:33.929Z,763.80
2018-06-25T06:17:33.984Z,749.00
2018-06-25T06:18:34.022Z,764.40
2018-06-25T06:19:34.043Z,744.70
2018-06-25T06:20:34.079Z,737.80
2018-06-25T06:21:34.135Z,766.70
2018-06-25T06:22:34.168Z,758.90
2018-06-25T06:23:34.216Z,735.50
2018-06-25T06:24:34.276Z,775.10
2018-06-25T06:25:34.313Z,800.10
2018-06-25T06:26:34.562Z,768.70
2018-06-25T06:27:34.408Z,766.80
2018-06-25T06:28:34.463Z,780.40
2018-06-25T06:29:34.501Z,771.80
2018-06-25T06:30:34.528Z,779.70
2018-06-25T06:31:34.560Z,774.20
2018-06-25T06:32:34.616Z,752.00
2018-06-25T06:33:34.662Z,768.90
2018-06-25T06:34:34.704Z,771.00
2018-06-25T06:35:34.750Z,775.40
2018-06-25T06:36:34.817Z,757.70
2018-06-25T06:37:34.847Z,766.20
2018-06-25T06:38:35.066Z,772.80
2018-06-25T06:39:34.915Z,767.20
2018-06-25T06:40:34.972Z,743.70
2018-06-25T06:41:35.009Z,777.20
2018-06-25T06:42:35.069Z,775.50
2018-06-25T06:43:35.087Z,785.60
2018-06-25T06:44:35.142Z,765.30
2018-06-25T06:45:35.190Z,766.90
2018-06-25T06:46:35.227Z,756.50
2018-06-25T06:47:35.278Z,759.40
2018-06-25T06:48:35.318Z,761.80
2018-06-25T06:49:35.340Z,757.20
2018-06-25T06:50:35.416Z,743.30
2018-06-25T06:51:35.451Z,742.40
2018-06-25T06:52:35.499Z,755.40
2018-06-25T06:53:35.529Z,749.00
2018-06-25T06:54:35.761Z,721.40
2018-06-25T06:55:35.628Z,725.40
2018-06-25T06:56:35.680Z,743.70
2018-06-25T06:57:35.772Z,720.30
2018-06-25T06:58:35.755Z,768.20
2018-06-25T06:59:35.805Z,750.60
2018-06-25T07:00:35.849Z,778.20
2018-06-25T07:01:35.886Z,773.10
2018-06-25T07:02:35.923Z,762.10
2018-06-25T07:03:35.966Z,748.10
2018-06-25T07:04:36.050Z,739.80
2018-06-25T07:05:36.067Z,723.10
2018-06-25T07:06:36.286Z,727.20
2018-06-25T07:07:36.124Z,718.70
2018-06-25T07:08:36.178Z,733.60
2018-06-25T07:09:36.207Z,727.60
2018-06-25T07:10:36.265Z,743.00
2018-06-25T07:11:36.306Z,756.40
2018-06-25T07:12:36.364Z,716.80
2018-06-25T07:13:36.416Z,709.70
2018-06-25T07:14:36.443Z,716.20
2018-06-25T07:15:36.485Z,714.20
2018-06-25T07:16:36.560Z,733.80
2018-06-25T07:17:36.782Z,785.90
2018-06-25T07:18:36.646Z,771.20
2018-06-25T07:19:36.687Z,761.30
2018-06-25T07:20:36.732Z,748.60
2018-06-25T07:21:36.757Z,723.50
2018-06-25T07:22:36.792Z,731.40
2018-06-25T07:23:36.857Z,690.10
2018-06-25T07:24:36.901Z,660.00
2018-06-25T07:25:36.917Z,683.40
2018-06-25T07:26:36.994Z,699.70
2018-06-25T07:27:36.988Z,681.40
2018-06-25T07:28:37.077Z,690.50
2018-06-25T07:29:37.291Z,683.30
2018-06-25T07:30:37.128Z,692.90
2018-06-25T07:31:37.213Z,687.30
2018-06-25T07:32:37.202Z,678.20
2018-06-25T07:33:37.273Z,686.60
2018-06-25T07:34:37.297Z,716.80
2018-06-25T07:35:37.384Z,712.60
2018-06-25T07:36:37.461Z,706.50
2018-06-25T07:37:37.416Z,672.20
2018-06-25T07:38:37.510Z,672.40
2018-06-25T07:39:37.542Z,658.70
2018-06-25T07:40:37.792Z,657.60
2018-06-25T07:41:37.625Z,668.10
2018-06-25T07:42:37.668Z,656.70
2018-06-25T07:43:37.713Z,687.10
2018-06-25T07:44:37.725Z,690.30
2018-06-25T07:45:37.799Z,684.80
2018-06-25T07:46:37.838Z,691.30
2018-06-25T07:47:37.866Z,679.00
2018-06-25T07:48:37.917Z,696.60
2018-06-25T07:49:37.969Z,715.20
2018-06-25T07:50:38.020Z,733.30
2018-06-25T07:51:38.286Z,752.60
2018-06-25T07:52:38.093Z,737.30
2018-06-25T07:53:38.188Z,744.00
2018-06-25T07:54:38.166Z,795.50
2018-06-25T07:55:38.236Z,731.30
2018-06-25T07:56:38.256Z,766.30
2018-06-25T07:57:38.326Z,764.40
2018-06-25T07:58:38.348Z,743.40
2018-06-25T07:59:38.363Z,758.30
2018-06-25T08:00:38.407Z,783.80
2018-06-25T08:01:38.491Z,778.30
2018-06-25T08:02:38.703Z,739.80
2018-06-25T08:03:38.591Z,767.60
2018-06-25T08:04:38.589Z,790.40
2018-06-25T08:05:38.639Z,788.00
2018-06-25T08:06:38.666Z,768.40
2018-06-25T08:07:38.738Z,766.90
2018-06-25T08:08:38.776Z,811.80
2018-06-25T08:09:38.795Z,827.10
2018-06-25T08:10:38.874Z,809.90
2018-06-25T08:11:38.903Z,835.80
2018-06-25T08:12:38.957Z,854.30
2018-06-25T08:13:39.001Z,843.10
2018-06-25T08:14:39.037Z,822.20
2018-06-25T08:15:39.078Z,839.80
2018-06-25T08:16:39.158Z,837.10
2018-06-25T08:17:39.143Z,832.40
2018-06-25T08:18:39.249Z,836.30
2018-06-25T08:19:39.263Z,841.10
2018-06-25T08:20:39.300Z,838.40
2018-06-25T08:21:39.351Z,817.10
2018-06-25T08:22:39.378Z,825.90
2018-06-25T08:23:39.425Z,847.00
2018-06-25T08:24:39.469Z,845.40
2018-06-25T08:25:39.499Z,845.10
2018-06-25T08:26:39.572Z,822.90
2018-06-25T08:27:39.601Z,803.50
2018-06-25T08:28:39.640Z,844.60
2018-06-25T08:29:39.698Z,807.30
2018-06-25T08:30:39.737Z,816.70
2018-06-25T08:31:39.778Z,833.30
2018-06-25T08:32:39.810Z,821.30
2018-06-25T08:33:39.871Z,805.80
2018-06-25T08:34:39.883Z,808.80
2018-06-25T08:35:39.944Z,810.40
2018-06-25T08:36:39.955Z,816.10
2018-06-25T08:37:40.034Z,814.50
2018-06-25T08:38:40.268Z,801.20
2018-06-25T08:39:40.116Z,818.70
2018-06-25T08:40:40.176Z,832.10
2018-06-25T08:41:40.202Z,821.60
2018-06-25T08:42:40.240Z,835.40
2018-06-25T08:43:40.303Z,834.10
2018-06-25T08:44:40.305Z,827.00
2018-06-25T08:45:40.379Z,806.50
2018-06-25T08:46:40.384Z,828.10
2018-06-25T08:47:40.461Z,833.50
2018-06-25T08:48:40.483Z,820.00
2018-06-25T08:49:40.563Z,793.80
2018-06-25T08:50:40.839Z,816.90
2018-06-25T08:51:40.658Z,822.30
2018-06-25T08:52:40.685Z,807.00
2018-06-25T08:53:40.728Z,781.60
2018-06-25T08:54:40.743Z,763.40
2018-06-25T08:55:40.805Z,795.90
2018-06-25T08:56:40.853Z,780.80
2018-06-25T08:57:40.896Z,798.20
2018-06-25T08:58:40.937Z,782.20
2018-06-25T08:59:40.966Z,788.20
2018-06-25T09:00:41.027Z,791.80
2018-06-25T09:01:41.049Z,783.10
2018-06-25T09:02:41.325Z,792.90
2018-06-25T09:03:41.157Z,789.20
2018-06-25T09:04:41.204Z,793.10
2018-06-25T09:05:41.248Z,793.20
2018-06-25T09:06:41.312Z,794.00
2018-06-25T09:07:41.341Z,789.60
2018-06-25T09:08:41.405Z,815.70
2018-06-25T09:09:41.483Z,808.80
2018-06-25T09:10:41.462Z,784.90
2018-06-25T09:11:41.512Z,791.80
2018-06-25T09:12:41.534Z,783.50
2018-06-25T09:13:41.781Z,791.90
2018-06-25T09:14:41.637Z,788.10
2018-06-25T09:15:41.695Z,793.50
2018-06-25T09:16:41.731Z,791.20
2018-06-25T09:17:41.757Z,793.20
2018-06-25T09:18:41.818Z,775.20
2018-06-25T09:19:41.855Z,779.50
2018-06-25T09:20:41.914Z,764.90
2018-06-25T09:21:41.951Z,759.60
2018-06-25T09:22:42.011Z,797.70
2018-06-25T09:23:42.026Z,775.60
2018-06-25T09:24:42.329Z,771.00
2018-06-25T09:25:42.137Z,733.60
2018-06-25T09:26:42.163Z,732.50
2018-06-25T09:27:42.316Z,760.10
2018-06-25T09:28:42.255Z,720.00
2018-06-25T09:29:42.273Z,749.10
2018-06-25T09:30:42.365Z,743.40
2018-06-25T09:31:42.375Z,734.80
2018-06-25T09:32:42.420Z,757.70
2018-06-25T09:33:42.478Z,739.40
2018-06-25T09:34:42.524Z,746.00
2018-06-25T09:35:42.572Z,735.30
2018-06-25T09:36:42.604Z,751.60
2018-06-25T09:37:42.629Z,723.80
2018-06-25T09:38:42.692Z,723.50
2018-06-25T09:39:42.740Z,741.80
2018-06-25T09:40:42.811Z,727.40
2018-06-25T09:41:43.142Z,728.50
2018-06-25T09:42:42.865Z,738.20
2018-06-25T09:43:43.139Z,748.30
2018-06-25T09:44:42.977Z,737.70
2018-06-25T09:45:43.014Z,735.90
2018-06-25T09:46:43.069Z,713.70
2018-06-25T09:47:43.092Z,715.40
2018-06-25T09:48:43.151Z,719.10
2018-06-25T09:49:43.192Z,701.90
2018-06-25T09:50:43.218Z,696.70
2018-06-25T09:51:43.260Z,730.20
2018-06-25T09:52:43.290Z,679.60
2018-06-25T09:53:43.346Z,775.70
2018-06-25T09:54:43.412Z,735.20
2018-06-25T09:55:43.436Z,712.90
2018-06-25T09:56:43.524Z,683.60
2018-06-25T09:57:43.555Z,692.00
2018-06-25T09:58:43.592Z,691.50
2018-06-25T09:59:43.647Z,679.90
2018-06-25T10:00:43.655Z,664.30
2018-06-25T10:01:43.710Z,685.90
2018-06-25T10:02:43.743Z,697.90
2018-06-25T10:03:43.803Z,698.40
2018-06-25T10:04:44.065Z,648.40
2018-06-25T10:05:43.887Z,643.30
2018-06-25T10:06:43.957Z,640.50
2018-06-25T10:07:43.987Z,659.20
2018-06-25T10:08:44.025Z,642.70
2018-06-25T10:09:44.049Z,619.60
2018-06-25T10:10:44.090Z,597.40
2018-06-25T10:11:44.151Z,614.90
2018-06-25T10:12:44.197Z,615.50
2018-06-25T10:13:44.232Z,584.10
2018-06-25T10:14:44.313Z,566.10
2018-06-25T10:15:44.353Z,561.40
2018-06-25T10:16:44.368Z,555.70
2018-06-25T10:17:44.425Z,532.60
2018-06-25T10:18:44.465Z,547.80
2018-06-25T10:19:44.511Z,584.10
2018-06-25T10:20:44.545Z,553.40
2018-06-25T10:21:44.607Z,534.00
2018-06-25T10:22:44.671Z,485.60
2018-06-25T10:23:44.708Z,491.40
2018-06-25T10:24:44.734Z,475.90
2018-06-25T10:25:44.771Z,460.80
2018-06-25T10:26:44.826Z,486.30
2018-06-25T10:27:44.887Z,430.60
2018-06-25T10:28:44.905Z,451.40
2018-06-25T10:29:44.938Z,425.30
2018-06-25T10:30:45.005Z,437.80
2018-06-25T10:31:45.045Z,480.80
2018-06-25T10:32:45.071Z,474.20
2018-06-25T10:33:45.120Z,453.90
2018-06-25T10:34:45.219Z,433.90
2018-06-25T10:35:45.231Z,424.10
2018-06-25T10:36:45.277Z,405.30
2018-06-25T10:37:45.327Z,437.40
2018-06-25T10:38:45.344Z,414.90
2018-06-25T10:39:45.409Z,373.90
2018-06-25T10:40:45.436Z,373.40
2018-06-25T10:41:45.480Z,401.80
2018-06-25T10:42:45.552Z,419.40
2018-06-25T10:43:45.629Z,436.60
2018-06-25T10:44:45.631Z,401.10
2018-06-25T10:45:45.651Z,411.80
2018-06-25T10:46:45.713Z,432.00
2018-06-25T10:47:45.734Z,422.20
2018-06-25T10:48:45.804Z,411.80
2018-06-25T10:49:45.854Z,454.40
2018-06-25T10:50:45.890Z,467.70
2018-06-25T10:51:45.914Z,463.50
2018-06-25T10:52:45.989Z,447.90
2018-06-25T10:53:46.025Z,453.40
2018-06-25T10:54:46.057Z,459.40
2018-06-25T10:55:46.092Z,434.50
2018-06-25T10:56:46.151Z,433.30
2018-06-25T10:57:46.210Z,451.50
2018-06-25T10:58:46.251Z,461.20
2018-06-25T10:59:46.345Z,452.80
2018-06-25T11:00:46.349Z,431.00
2018-06-25T11:01:46.389Z,435.10
2018-06-25T11:02:46.401Z,454.90
2018-06-25T11:03:46.466Z,457.80
2018-06-25T11:04:46.504Z,447.20
2018-06-25T11:05:46.579Z,539.20
2018-06-25T11:06:46.590Z,447.40
2018-06-25T11:07:46.686Z,324.40
2018-06-25T11:08:46.702Z,327.00
2018-06-25T11:09:46.721Z,362.10
2018-06-25T11:10:46.799Z,459.00
2018-06-25T11:11:46.822Z,503.80
2018-06-25T11:12:46.908Z,508.20
2018-06-25T11:13:46.914Z,441.50
2018-06-25T11:14:46.953Z,366.00
2018-06-25T11:15:46.986Z,323.90
2018-06-25T11:16:47.065Z,294.90
2018-06-25T11:17:47.105Z,275.40
2018-06-25T11:18:47.132Z,240.50
2018-06-25T11:19:47.221Z,196.40
2018-06-25T11:20:47.240Z,199.30
2018-06-25T11:21:47.283Z,193.20
2018-06-25T11:22:47.358Z,208.30
2018-06-25T11:23:47.397Z,172.60
2018-06-25T11:24:47.430Z,175.20
2018-06-25T11:25:47.489Z,141.10
2018-06-25T11:26:47.582Z,159.30
2018-06-25T11:27:47.667Z,128.10
2018-06-25T11:28:47.640Z,116.50
2018-06-25T11:29:47.660Z,118.60
2018-06-25T11:30:47.739Z,117.30
2018-06-25T11:31:47.793Z,146.60
2018-06-25T11:32:47.832Z,190.70
2018-06-25T11:33:47.896Z,207.00
2018-06-25T11:34:47.964Z,210.60
2018-06-25T11:35:48.018Z,235.30
2018-06-25T11:36:48.063Z,218.70
2018-06-25T11:37:48.082Z,253.40
2018-06-25T11:38:48.141Z,252.10
2018-06-25T11:39:48.177Z,270.30
2018-06-25T11:40:48.236Z,270.30
2018-06-25T11:41:48.346Z,273.60
2018-06-25T11:42:48.345Z,280.00
2018-06-25T11:43:48.422Z,264.10
2018-06-25T11:44:48.436Z,274.20
2018-06-25T11:45:48.481Z,283.50
2018-06-25T11:46:48.563Z,239.60
2018-06-25T11:47:48.594Z,237.30
2018-06-25T11:48:48.673Z,213.30
2018-06-25T11:49:48.711Z,309.20
2018-06-25T11:50:48.737Z,348.50
2018-06-25T11:51:48.918Z,343.80
2018-06-25T11:52:48.863Z,371.70
2018-06-25T11:53:48.903Z,392.10
2018-06-25T11:54:48.947Z,306.10
2018-06-25T11:55:49.011Z,359.10
2018-06-25T11:56:49.059Z,374.00
2018-06-25T11:57:49.104Z,375.40
2018-06-25T11:58:49.147Z,398.00
2018-06-25T11:59:49.226Z,393.40
2018-06-25T12:00:49.265Z,338.30
2018-06-25T12:01:49.416Z,268.60
2018-06-25T12:02:49.580Z,289.50
2018-06-25T12:03:49.432Z,231.10
2018-06-25T12:04:49.493Z,242.60
2018-06-25T12:05:49.509Z,201.70
2018-06-25T12:06:49.573Z,341.40
2018-06-25T12:07:49.644Z,324.00
2018-06-25T12:08:49.698Z,323.40
2018-06-25T12:09:49.768Z,283.10
2018-06-25T12:10:50.036Z,271.60
2018-06-25T12:11:49.849Z,257.80
2018-06-25T12:12:49.944Z,260.40
2018-06-25T12:13:49.950Z,283.50
2018-06-25T12:17:34.706Z,224.10
2018-06-25T12:17:35.948Z,185.80
2018-06-25T12:18:35.920Z,162.00
2018-06-25T12:19:35.967Z,126.40
2018-06-25T12:20:36.016Z,133.30
2018-06-25T12:21:36.073Z,156.70
2018-06-25T12:22:36.110Z,130.00
2018-06-25T12:23:36.165Z,142.60
2018-06-25T12:24:36.212Z,114.00
2018-06-25T12:25:36.274Z,116.90
2018-06-25T12:26:36.345Z,114.80
2018-06-25T12:27:36.418Z,112.00
2018-06-25T12:28:36.439Z,110.80
2018-06-25T12:29:36.475Z,117.50
2018-06-25T12:30:36.556Z,116.40